Issue No interpolation though no cloud information present

Chrix

Member
Hi,

I recently faced issues with the weather depiction in XP11 (B7494).

Even if the cloud information is not present or incomplete in the METAR string (e. g. EFTP 111420Z AUTO 24007KT 9999 VCSH ///////CB 16/11 Q1006) ASXP won't trigger interpolation for the cloud depiction but instead sets the cloud coverage to none or high altitude cirrus (see attached screenshot).

Would be great if this could be changed or improved. :)

ChristophEFTP_conditions.jpg
 

maxam

Super Moderator
Apologies for the late reply. Thank you for the report.

You are correct, the METAR does not appear to be coded correctly. This might be resolved by ASXP in a future build.
 
Top